createdAt,value
2023-01-03T00:01:15.114Z,195.32
2023-01-03T00:04:18.328Z,151.80
2023-01-03T00:07:34.383Z,336.50
2023-01-03T00:10:40.840Z,174.07
2023-01-03T00:13:44.206Z,240.48
2023-01-03T00:16:51.080Z,69.18
2023-01-03T00:19:53.961Z,309.48
2023-01-03T00:22:56.662Z,256.00
2023-01-03T00:25:59.514Z,105.00
2023-01-03T00:29:02.433Z,198.98
2023-01-03T00:32:05.785Z,271.87
2023-01-03T00:35:09.223Z,286.62
2023-01-03T00:38:12.013Z,231.70
2023-01-03T00:41:17.093Z,156.73
2023-01-03T00:44:20.402Z,203.02
2023-01-03T00:47:23.179Z,195.87
2023-01-03T00:50:25.971Z,248.70
2023-01-03T00:53:28.945Z,118.10
2023-01-03T00:56:37.389Z,183.33
2023-01-03T00:59:40.248Z,265.20
2023-01-03T01:02:43.308Z,108.70
2023-01-03T01:05:46.329Z,125.32
2023-01-03T01:08:55.377Z,207.60
2023-01-03T01:11:58.046Z,155.60
2023-01-03T01:15:00.934Z,102.97
2023-01-03T01:18:03.636Z,207.77
2023-01-03T01:21:08.072Z,189.73
2023-01-03T01:24:17.429Z,138.17
2023-01-03T01:27:20.748Z,72.67
2023-01-03T01:30:24.812Z,94.20
2023-01-03T01:33:28.217Z,123.68
2023-01-03T01:36:34.015Z,92.43
2023-01-03T01:39:37.015Z,105.70
2023-01-03T01:42:58.133Z,77.57
2023-01-03T01:46:21.960Z,88.75
2023-01-03T01:49:26.423Z,84.55
2023-01-03T01:52:31.164Z,82.60
2023-01-03T01:55:38.866Z,72.17
2023-01-03T01:58:44.464Z,61.10
2023-01-03T02:01:48.592Z,76.30
2023-01-03T02:04:53.822Z,86.55
2023-01-03T02:07:57.052Z,69.07
2023-01-03T02:11:09.258Z,64.37
2023-01-03T02:14:17.986Z,90.33
2023-01-03T02:17:27.231Z,77.10
2023-01-03T02:20:58.580Z,77.47
2023-01-03T02:24:14.216Z,59.75
2023-01-03T02:27:54.508Z,54.37
2023-01-03T02:31:13.384Z,61.93
2023-01-03T02:34:27.751Z,54.58
2023-01-03T02:37:39.658Z,49.10
2023-01-03T02:41:08.694Z,52.80
2023-01-03T02:44:27.398Z,49.23
2023-01-03T02:47:36.061Z,49.27
2023-01-03T02:50:49.995Z,51.08
2023-01-03T02:53:52.908Z,46.22
2023-01-03T02:57:06.387Z,54.90
2023-01-03T03:00:21.663Z,54.93
2023-01-03T03:03:27.182Z,50.17
2023-01-03T03:06:35.041Z,50.58
2023-01-03T03:09:57.875Z,55.85
2023-01-03T03:13:53.678Z,51.22
2023-01-03T03:17:00.981Z,52.90
2023-01-03T03:20:31.994Z,50.07
2023-01-03T03:23:55.698Z,52.83
2023-01-03T03:26:59.467Z,58.25
2023-01-03T03:30:05.169Z,73.30
2023-01-03T03:33:08.941Z,74.37
2023-01-03T03:36:33.501Z,97.50
2023-01-03T03:39:55.216Z,151.73
2023-01-03T03:43:25.479Z,111.43
2023-01-03T03:46:34.007Z,159.12
2023-01-03T03:49:38.599Z,162.40
2023-01-03T03:52:45.399Z,225.63
2023-01-03T03:55:51.807Z,171.70
2023-01-03T03:58:59.071Z,141.98
2023-01-03T04:02:04.044Z,203.18
2023-01-03T04:05:10.225Z,191.07
2023-01-03T04:08:13.054Z,218.60
2023-01-03T04:11:15.840Z,173.85
2023-01-03T04:14:18.919Z,276.67
2023-01-03T04:17:21.715Z,176.10
2023-01-03T04:20:24.648Z,163.70
2023-01-03T04:23:27.592Z,100.77
2023-01-03T04:26:30.338Z,67.97
2023-01-03T04:29:38.993Z,67.70
2023-01-03T04:32:46.619Z,49.17
2023-01-03T04:35:49.346Z,54.27
2023-01-03T04:38:52.221Z,50.97
2023-01-03T04:41:55.066Z,56.85
2023-01-03T04:44:57.825Z,64.95
2023-01-03T04:48:00.521Z,54.45
2023-01-03T04:51:04.028Z,46.37
2023-01-03T04:54:07.051Z,48.10
2023-01-03T04:57:10.851Z,46.67
2023-01-03T05:00:14.210Z,48.97
2023-01-03T05:03:20.073Z,48.38
2023-01-03T05:06:27.500Z,51.07
2023-01-03T05:09:30.460Z,44.20
2023-01-03T05:12:33.254Z,38.60
2023-01-03T05:15:38.713Z,40.63
2023-01-03T05:18:42.741Z,36.00
2023-01-03T05:22:03.933Z,40.40
2023-01-03T05:25:25.560Z,36.47
2023-01-03T05:28:30.558Z,32.97
2023-01-03T05:31:33.442Z,35.13
2023-01-03T05:34:36.277Z,33.30
2023-01-03T05:37:38.957Z,40.57
2023-01-03T05:40:48.580Z,36.20
2023-01-03T05:43:51.467Z,35.13
2023-01-03T05:46:54.166Z,46.95
2023-01-03T05:49:56.921Z,42.72
2023-01-03T05:52:59.729Z,55.17
2023-01-03T05:56:06.757Z,56.03
2023-01-03T05:59:10.139Z,62.17
2023-01-03T06:02:12.991Z,62.50
2023-01-03T06:05:16.038Z,62.42
2023-01-03T06:08:18.838Z,50.30
2023-01-03T06:11:22.515Z,55.77
2023-01-03T06:14:25.287Z,48.47
2023-01-03T06:17:46.461Z,57.53
2023-01-03T06:20:50.990Z,55.40
2023-01-03T06:23:53.946Z,56.63
2023-01-03T06:26:56.757Z,54.20
2023-01-03T06:29:59.908Z,53.72
2023-01-03T06:33:02.665Z,62.00
2023-01-03T06:36:10.091Z,42.58
2023-01-03T06:39:12.829Z,59.27
2023-01-03T06:42:34.070Z,45.80
2023-01-03T06:45:55.354Z,46.00
2023-01-03T06:49:17.545Z,61.75
2023-01-03T06:52:38.741Z,40.42
2023-01-03T06:55:43.204Z,58.63
2023-01-03T06:58:45.972Z,62.33
2023-01-03T07:01:49.963Z,58.92
2023-01-03T07:04:52.971Z,71.18
2023-01-03T07:07:55.789Z,145.98
2023-01-03T07:10:59.022Z,100.97
2023-01-03T07:14:03.599Z,90.07
2023-01-03T07:17:06.520Z,89.47
2023-01-03T07:20:09.723Z,97.37
2023-01-03T07:23:13.998Z,77.25
2023-01-03T07:26:16.878Z,65.63
2023-01-03T07:29:19.683Z,71.47
2023-01-03T07:32:22.439Z,57.30
2023-01-03T07:35:25.196Z,57.95
2023-01-03T07:38:28.313Z,56.75
2023-01-03T07:41:49.928Z,60.23
2023-01-03T07:44:52.757Z,72.60
2023-01-03T07:47:55.904Z,331.38
2023-01-03T07:50:59.401Z,142.98
2023-01-03T07:54:02.866Z,92.12
2023-01-03T07:57:05.628Z,79.00
2023-01-03T08:00:10.292Z,76.70
2023-01-03T08:03:14.675Z,80.75
2023-01-03T08:06:19.907Z,102.10
2023-01-03T08:09:41.215Z,55.75
2023-01-03T08:13:02.543Z,38.60
2023-01-03T08:16:06.090Z,49.53
2023-01-03T08:19:09.050Z,54.38
2023-01-03T08:22:11.942Z,44.42
2023-01-03T08:25:14.713Z,35.15
2023-01-03T08:28:17.717Z,38.70
2023-01-03T08:31:26.395Z,37.80
2023-01-03T08:34:32.180Z,31.23
2023-01-03T08:37:35.356Z,32.20
2023-01-03T08:45:23.334Z,36.33
2023-01-03T08:48:26.321Z,32.37
2023-01-03T08:51:30.306Z,34.95
2023-01-03T08:54:33.304Z,70.32
2023-01-03T08:57:36.168Z,92.45
2023-01-03T09:00:40.109Z,41.20
2023-01-03T09:03:43.538Z,30.33
2023-01-03T09:06:46.916Z,27.90
2023-01-03T09:09:51.078Z,30.60
2023-01-03T09:12:54.059Z,26.35
2023-01-03T09:16:04.904Z,24.57
2023-01-03T09:19:08.170Z,22.40
2023-01-03T09:22:11.234Z,21.37
2023-01-03T09:25:15.733Z,20.25
2023-01-03T09:28:18.882Z,20.65
2023-01-03T09:31:23.954Z,21.90
2023-01-03T09:34:27.481Z,21.73
2023-01-03T09:37:30.487Z,22.20
2023-01-03T09:40:40.976Z,23.60
2023-01-03T09:43:47.046Z,69.65
2023-01-03T09:46:49.970Z,22.67
2023-01-03T09:50:27.656Z,21.57
2023-01-03T09:53:46.534Z,19.37
2023-01-03T09:57:08.366Z,20.05
2023-01-03T10:00:50.119Z,20.42
2023-01-03T10:04:16.153Z,22.30
2023-01-03T10:07:37.613Z,19.67
2023-01-03T10:10:53.014Z,22.15
2023-01-03T10:14:14.803Z,19.52
2023-01-03T10:18:00.630Z,18.83
2023-01-03T10:21:34.010Z,18.87
2023-01-03T10:24:46.305Z,17.80
2023-01-03T10:28:01.741Z,18.15
2023-01-03T10:31:07.980Z,19.05
2023-01-03T10:34:12.993Z,16.60
2023-01-03T10:37:19.441Z,18.03
2023-01-03T10:40:42.073Z,19.53
2023-01-03T10:43:46.422Z,21.77
2023-01-03T10:46:51.592Z,19.90
2023-01-03T10:50:01.580Z,17.58
2023-01-03T10:53:07.733Z,17.53
2023-01-03T10:56:15.301Z,16.37
2023-01-03T10:59:26.785Z,17.95
2023-01-03T11:02:29.970Z,16.08
2023-01-03T11:05:33.682Z,16.33
2023-01-03T11:08:44.841Z,15.97
2023-01-03T11:11:55.110Z,19.83
2023-01-03T11:14:58.531Z,17.25
2023-01-03T11:18:06.488Z,17.98
2023-01-03T11:21:23.607Z,15.98
2023-01-03T11:24:48.215Z,18.07
2023-01-03T11:28:02.985Z,17.00
2023-01-03T11:31:28.929Z,19.10
2023-01-03T11:35:21.299Z,16.60
2023-01-03T11:38:22.078Z,17.02
2023-01-03T11:41:56.256Z,17.80
2023-01-03T11:45:22.830Z,17.50
2023-01-03T11:48:47.416Z,16.67
2023-01-03T11:52:20.791Z,17.90
2023-01-03T11:55:38.953Z,18.42
2023-01-03T11:58:58.543Z,16.50
2023-01-03T12:02:36.766Z,17.00
2023-01-03T12:06:29.115Z,20.83
2023-01-03T12:09:48.353Z,17.17
2023-01-03T12:13:29.824Z,17.08
2023-01-03T12:16:39.073Z,16.10
2023-01-03T12:19:45.703Z,20.17
2023-01-03T12:23:01.963Z,18.83
2023-01-03T12:26:08.890Z,17.25
2023-01-03T12:29:20.317Z,18.10
2023-01-03T12:32:52.885Z,17.17
2023-01-03T12:36:18.061Z,16.87
2023-01-03T12:39:49.715Z,18.15
2023-01-03T12:43:22.435Z,16.20
2023-01-03T12:46:31.571Z,16.48
2023-01-03T12:49:50.148Z,16.57
2023-01-03T12:53:24.688Z,17.63
2023-01-03T12:56:30.822Z,16.40
2023-01-03T13:00:16.989Z,18.92
2023-01-03T13:03:30.199Z,18.83
2023-01-03T13:06:40.541Z,18.03
2023-01-03T13:10:02.923Z,19.33
2023-01-03T13:13:21.569Z,17.05
2023-01-03T13:16:52.939Z,17.08
2023-01-03T13:20:37.670Z,17.15
2023-01-03T13:24:04.723Z,17.57
2023-01-03T13:27:30.580Z,22.43
2023-01-03T13:30:43.999Z,17.85
2023-01-03T13:33:57.811Z,17.33
2023-01-03T13:37:10.645Z,16.85
2023-01-03T13:40:14.216Z,18.67
2023-01-03T13:43:23.059Z,20.47
2023-01-03T13:46:29.472Z,18.33
2023-01-03T13:49:32.465Z,19.25
2023-01-03T13:53:00.288Z,18.27
2023-01-03T13:56:15.482Z,18.97
2023-01-03T13:59:42.849Z,18.77
2023-01-03T14:03:04.192Z,17.35
2023-01-03T14:06:18.779Z,17.98
2023-01-03T14:09:24.833Z,16.08
2023-01-03T14:12:55.330Z,20.30
2023-01-03T14:16:17.373Z,20.07
2023-01-03T14:19:26.699Z,18.75
2023-01-03T14:22:42.289Z,20.30
2023-01-03T14:25:45.793Z,19.05
2023-01-03T14:28:52.085Z,19.27
2023-01-03T14:31:56.484Z,22.80
2023-01-03T14:35:03.081Z,18.15
2023-01-03T14:38:07.546Z,19.67
2023-01-03T14:41:29.562Z,159.32
2023-01-03T14:44:38.967Z,21.53
2023-01-03T14:47:46.202Z,29.50
2023-01-03T14:50:54.840Z,21.92
2023-01-03T14:53:59.659Z,19.23
2023-01-03T14:57:02.971Z,21.33
2023-01-03T15:00:12.028Z,24.40
2023-01-03T15:03:17.154Z,22.40
2023-01-03T15:06:24.159Z,21.95
2023-01-03T15:09:27.277Z,24.42
2023-01-03T15:12:31.891Z,55.83
2023-01-03T15:15:39.318Z,29.30
2023-01-03T15:18:44.447Z,27.90
2023-01-03T15:21:47.331Z,35.15
2023-01-03T15:24:55.253Z,24.63
2023-01-03T15:28:21.108Z,24.40
2023-01-03T15:31:24.275Z,26.27
2023-01-03T15:34:38.999Z,22.67
2023-01-03T15:37:42.583Z,20.48
2023-01-03T15:40:50.839Z,21.65
2023-01-03T15:43:57.568Z,30.08
2023-01-03T15:47:07.693Z,31.23
2023-01-03T15:50:14.589Z,38.33
2023-01-03T15:53:44.621Z,35.53
2023-01-03T15:57:00.695Z,31.58
2023-01-03T16:00:06.525Z,34.13
2023-01-03T16:03:18.721Z,40.83
2023-01-03T16:06:21.874Z,35.07
2023-01-03T16:09:32.665Z,34.17
2023-01-03T16:12:48.108Z,32.38
2023-01-03T16:16:15.726Z,31.62
2023-01-03T16:19:26.428Z,36.57
2023-01-03T16:22:35.082Z,35.57
2023-01-03T16:25:38.771Z,36.25
2023-01-03T16:28:41.797Z,35.65
2023-01-03T16:31:45.466Z,35.10
2023-01-03T16:34:48.607Z,32.87
2023-01-03T16:37:54.390Z,36.47
2023-01-03T16:40:58.530Z,35.38
2023-01-03T16:44:01.378Z,36.33
2023-01-03T16:47:10.372Z,35.38
2023-01-03T16:50:18.900Z,38.40
2023-01-03T16:53:45.137Z,37.73
2023-01-03T16:56:51.930Z,36.60
2023-01-03T16:59:55.419Z,34.85
2023-01-03T17:03:01.840Z,35.42
2023-01-03T17:06:05.073Z,34.87
2023-01-03T17:09:17.452Z,35.00
2023-01-03T17:12:22.769Z,34.10
2023-01-03T17:15:25.783Z,33.50
2023-01-03T17:18:38.995Z,35.60
2023-01-03T17:21:45.318Z,33.73
2023-01-03T17:24:52.758Z,35.10
2023-01-03T17:27:57.622Z,35.67
2023-01-03T17:31:01.007Z,34.42
2023-01-03T17:34:16.658Z,33.50
2023-01-03T17:37:20.966Z,35.53
2023-01-03T17:40:33.152Z,33.63
2023-01-03T17:43:36.732Z,36.55
2023-01-03T17:47:01.133Z,38.53
2023-01-03T17:50:04.341Z,33.92
2023-01-03T17:53:10.839Z,31.57
2023-01-03T17:56:18.248Z,32.23
2023-01-03T17:59:22.528Z,34.67
2023-01-03T18:02:30.393Z,35.13
2023-01-03T18:05:34.958Z,32.95
2023-01-03T18:08:41.499Z,32.83
2023-01-03T18:11:44.625Z,34.63
2023-01-03T18:14:49.392Z,32.33
2023-01-03T18:17:53.306Z,35.03
2023-01-03T18:20:57.605Z,33.50
2023-01-03T18:24:02.323Z,32.30
2023-01-03T18:27:05.094Z,32.60
2023-01-03T18:30:15.243Z,33.20
2023-01-03T18:33:21.223Z,32.75
2023-01-03T18:36:27.610Z,35.47
2023-01-03T18:39:30.726Z,36.37
2023-01-03T18:42:53.302Z,33.70
2023-01-03T18:45:56.228Z,29.52
2023-01-03T18:48:59.385Z,33.03
2023-01-03T18:52:02.610Z,32.40
2023-01-03T18:55:07.833Z,34.57
2023-01-03T18:58:29.828Z,34.20
2023-01-03T19:01:34.798Z,31.75
2023-01-03T19:04:38.068Z,31.20
2023-01-03T19:07:45.666Z,31.50
2023-01-03T19:10:52.620Z,29.10
2023-01-03T19:13:55.913Z,31.03
2023-01-03T19:17:02.264Z,33.20
2023-01-03T19:20:06.566Z,29.48
2023-01-03T19:23:10.483Z,31.65
2023-01-03T19:26:26.315Z,31.23
2023-01-03T19:29:37.268Z,29.67
2023-01-03T19:32:40.674Z,28.52
2023-01-03T19:35:44.266Z,32.17
2023-01-03T19:38:47.277Z,29.48
2023-01-03T19:42:10.596Z,27.77
2023-01-03T19:45:22.288Z,26.80
2023-01-03T19:48:26.741Z,29.35
2023-01-03T19:51:29.912Z,30.50
2023-01-03T19:54:33.033Z,30.73
2023-01-03T19:57:35.904Z,29.90
2023-01-03T20:00:43.560Z,28.73
2023-01-03T20:03:48.455Z,30.62
2023-01-03T20:06:51.568Z,29.95
2023-01-03T20:09:54.577Z,27.30
2023-01-03T20:13:00.743Z,27.93
2023-01-03T20:16:04.030Z,27.07
2023-01-03T20:19:09.662Z,29.52
2023-01-03T20:22:37.356Z,29.52
2023-01-03T20:25:37.365Z,25.73
2023-01-03T20:28:40.716Z,26.43
2023-01-03T20:31:44.655Z,28.83
2023-01-03T20:34:48.336Z,32.53
2023-01-03T20:37:54.263Z,30.15
2023-01-03T20:41:00.657Z,30.10
2023-01-03T20:44:10.249Z,32.33
2023-01-03T20:47:13.801Z,30.83
2023-01-03T20:50:21.136Z,33.20
2023-01-03T20:53:27.995Z,30.27
2023-01-03T20:56:33.537Z,28.48
2023-01-03T20:59:36.608Z,28.63
2023-01-03T21:02:39.989Z,26.83
2023-01-03T21:05:43.102Z,27.30
2023-01-03T21:08:54.987Z,27.92
2023-01-03T21:11:58.145Z,31.55
2023-01-03T21:15:01.385Z,32.00
2023-01-03T21:18:05.636Z,28.67
2023-01-03T21:21:14.694Z,28.58
2023-01-03T21:24:19.734Z,29.45
2023-01-03T21:27:25.435Z,29.90
2023-01-03T21:30:31.327Z,29.90
2023-01-03T21:33:34.232Z,25.73
2023-01-03T21:36:37.177Z,30.67
2023-01-03T21:39:40.624Z,27.67
2023-01-03T21:43:03.586Z,27.73
2023-01-03T21:46:07.970Z,25.83
2023-01-03T21:49:11.017Z,31.20
2023-01-03T21:52:14.438Z,27.23
2023-01-03T21:55:18.217Z,24.45
2023-01-03T21:58:22.287Z,24.52
2023-01-03T22:01:26.507Z,26.23
2023-01-03T22:04:33.167Z,25.80
2023-01-03T22:07:36.601Z,22.13
2023-01-03T22:10:42.497Z,21.58
2023-01-03T22:13:47.205Z,24.60
2023-01-03T22:16:53.337Z,23.23
2023-01-03T22:19:58.337Z,23.33
2023-01-03T22:23:01.347Z,25.77
2023-01-03T22:26:11.554Z,23.75
2023-01-03T22:29:14.696Z,25.73
2023-01-03T22:32:17.791Z,22.77
2023-01-03T22:35:20.707Z,24.20
2023-01-03T22:38:25.498Z,20.45
2023-01-03T22:41:29.216Z,23.92
2023-01-03T22:44:32.078Z,21.42
2023-01-03T22:47:38.317Z,25.27
2023-01-03T22:50:42.896Z,23.20
2023-01-03T22:53:50.685Z,26.42
2023-01-03T22:56:56.292Z,23.80
2023-01-03T22:59:59.798Z,23.52
2023-01-03T23:03:03.125Z,23.97
2023-01-03T23:06:08.102Z,25.33
2023-01-03T23:09:13.813Z,26.90
2023-01-03T23:12:38.234Z,28.33
2023-01-03T23:15:41.080Z,34.03
2023-01-03T23:18:43.880Z,26.10
2023-01-03T23:21:49.239Z,21.73
2023-01-03T23:24:52.204Z,26.98
2023-01-03T23:27:54.994Z,25.83
2023-01-03T23:31:03.683Z,23.42
2023-01-03T23:34:08.666Z,23.37
2023-01-03T23:37:11.578Z,24.20
2023-01-03T23:40:15.216Z,25.50
2023-01-03T23:43:21.599Z,24.17
2023-01-03T23:46:27.811Z,24.70
2023-01-03T23:49:30.732Z,22.83
2023-01-03T23:52:34.757Z,23.80
2023-01-03T23:55:40.773Z,19.08
2023-01-03T23:58:44.708Z,20.42
